sensor_id;sensor_type;location;lat;lon;timestamp;pressure;altitude;pressure_sealevel;temperature;humidity
56671;BME280;42545;50.054;8.306;2023-02-28T00:00:26;101090.75;;;-0.67;69.67
56671;BME280;42545;50.054;8.306;2023-02-28T00:02:52;101091.44;;;-0.69;70.32
56671;BME280;42545;50.054;8.306;2023-02-28T00:05:21;101095.06;;;-0.67;70.54
56671;BME280;42545;50.054;8.306;2023-02-28T00:07:52;101089.88;;;-0.67;70.60
56671;BME280;42545;50.054;8.306;2023-02-28T00:10:21;101098.66;;;-0.65;70.75
56671;BME280;42545;50.054;8.306;2023-02-28T00:12:50;101093.47;;;-0.65;71.12
56671;BME280;42545;50.054;8.306;2023-02-28T00:15:18;101092.78;;;-0.63;70.90
56671;BME280;42545;50.054;8.306;2023-02-28T00:17:45;101086.84;;;-0.62;71.20
56671;BME280;42545;50.054;8.306;2023-02-28T00:20:13;101082.44;;;-0.63;70.85
56671;BME280;42545;50.054;8.306;2023-02-28T00:22:42;101093.28;;;-0.56;70.70
56671;BME280;42545;50.054;8.306;2023-02-28T00:25:10;101089.13;;;-0.54;70.48
56671;BME280;42545;50.054;8.306;2023-02-28T00:27:38;101089.25;;;-0.53;70.48
56671;BME280;42545;50.054;8.306;2023-02-28T00:30:10;101100.63;;;-0.51;70.29
56671;BME280;42545;50.054;8.306;2023-02-28T00:32:37;101089.47;;;-0.50;70.60
56671;BME280;42545;50.054;8.306;2023-02-28T00:35:04;101079.09;;;-0.50;70.49
56671;BME280;42545;50.054;8.306;2023-02-28T00:37:32;101091.41;;;-0.47;70.70
56671;BME280;42545;50.054;8.306;2023-02-28T00:39:59;101084.84;;;-0.54;70.57
56671;BME280;42545;50.054;8.306;2023-02-28T00:42:26;101089.00;;;-0.56;70.90
56671;BME280;42545;50.054;8.306;2023-02-28T00:44:52;101094.19;;;-0.56;70.96
56671;BME280;42545;50.054;8.306;2023-02-28T00:47:20;101083.44;;;-0.61;71.11
56671;BME280;42545;50.054;8.306;2023-02-28T00:49:47;101091.00;;;-0.64;71.17
56671;BME280;42545;50.054;8.306;2023-02-28T00:52:14;101086.25;;;-0.69;71.33
56671;BME280;42545;50.054;8.306;2023-02-28T00:54:41;101078.88;;;-0.75;71.53
56671;BME280;42545;50.054;8.306;2023-02-28T00:57:08;101083.97;;;-0.76;71.91
56671;BME280;42545;50.054;8.306;2023-02-28T00:59:35;101083.47;;;-0.83;72.20
56671;BME280;42545;50.054;8.306;2023-02-28T01:02:01;101084.03;;;-0.87;72.57
56671;BME280;42545;50.054;8.306;2023-02-28T01:04:30;101086.22;;;-0.91;72.95
56671;BME280;42545;50.054;8.306;2023-02-28T01:06:56;101096.38;;;-0.94;73.14
56671;BME280;42545;50.054;8.306;2023-02-28T01:09:23;101093.53;;;-0.98;73.53
56671;BME280;42545;50.054;8.306;2023-02-28T01:11:50;101089.03;;;-1.00;73.75
56671;BME280;42545;50.054;8.306;2023-02-28T01:14:17;101080.25;;;-1.02;74.07
56671;BME280;42545;50.054;8.306;2023-02-28T01:16:44;101091.13;;;-1.06;74.60
56671;BME280;42545;50.054;8.306;2023-02-28T01:19:11;101083.88;;;-1.10;74.99
56671;BME280;42545;50.054;8.306;2023-02-28T01:21:39;101087.16;;;-1.13;75.12
56671;BME280;42545;50.054;8.306;2023-02-28T01:24:06;101080.81;;;-1.17;76.10
56671;BME280;42545;50.054;8.306;2023-02-28T01:26:33;101080.56;;;-1.20;76.40
56671;BME280;42545;50.054;8.306;2023-02-28T01:29:00;101069.72;;;-1.26;76.59
56671;BME280;42545;50.054;8.306;2023-02-28T01:31:27;101079.53;;;-1.22;77.02
56671;BME280;42545;50.054;8.306;2023-02-28T01:33:54;101077.72;;;-1.23;77.44
56671;BME280;42545;50.054;8.306;2023-02-28T01:36:23;101070.63;;;-1.25;77.53
56671;BME280;42545;50.054;8.306;2023-02-28T01:38:52;101072.31;;;-1.26;78.58
56671;BME280;42545;50.054;8.306;2023-02-28T01:41:22;101074.66;;;-1.29;78.26
56671;BME280;42545;50.054;8.306;2023-02-28T01:43:56;101072.06;;;-1.29;79.19
56671;BME280;42545;50.054;8.306;2023-02-28T01:46:23;101072.97;;;-1.28;79.27
56671;BME280;42545;50.054;8.306;2023-02-28T01:48:51;101063.50;;;-1.28;79.22
56671;BME280;42545;50.054;8.306;2023-02-28T01:51:22;101067.16;;;-1.26;79.10
56671;BME280;42545;50.054;8.306;2023-02-28T01:53:53;101072.41;;;-1.24;79.42
56671;BME280;42545;50.054;8.306;2023-02-28T01:56:24;101061.28;;;-1.23;79.68
56671;BME280;42545;50.054;8.306;2023-02-28T01:58:53;101063.75;;;-1.25;79.40
56671;BME280;42545;50.054;8.306;2023-02-28T02:01:21;101055.09;;;-1.25;79.29
56671;BME280;42545;50.054;8.306;2023-02-28T02:03:49;101059.00;;;-1.30;79.31
56671;BME280;42545;50.054;8.306;2023-02-28T02:06:20;101055.63;;;-1.29;79.26
56671;BME280;42545;50.054;8.306;2023-02-28T02:08:47;101058.66;;;-1.35;79.33
56671;BME280;42545;50.054;8.306;2023-02-28T02:11:17;101056.69;;;-1.38;79.29
56671;BME280;42545;50.054;8.306;2023-02-28T02:14:06;101055.00;;;-1.37;79.21
56671;BME280;42545;50.054;8.306;2023-02-28T02:16:50;101042.25;;;-1.46;79.37
56671;BME280;42545;50.054;8.306;2023-02-28T02:19:40;101043.91;;;-1.46;79.42
56671;BME280;42545;50.054;8.306;2023-02-28T02:22:21;101054.94;;;-1.49;79.26
56671;BME280;42545;50.054;8.306;2023-02-28T02:25:11;101055.34;;;-1.55;79.56
56671;BME280;42545;50.054;8.306;2023-02-28T02:28:05;101054.19;;;-1.58;80.30
56671;BME280;42545;50.054;8.306;2023-02-28T02:31:18;101059.25;;;-1.60;80.02
56671;BME280;42545;50.054;8.306;2023-02-28T02:34:22;101056.53;;;-1.61;80.21
56671;BME280;42545;50.054;8.306;2023-02-28T02:37:01;101055.50;;;-1.63;79.89
56671;BME280;42545;50.054;8.306;2023-02-28T02:39:36;101052.91;;;-1.63;80.19
56671;BME280;42545;50.054;8.306;2023-02-28T02:42:13;101055.38;;;-1.65;80.16
56671;BME280;42545;50.054;8.306;2023-02-28T02:44:44;101051.22;;;-1.63;79.66
56671;BME280;42545;50.054;8.306;2023-02-28T02:47:16;101050.47;;;-1.62;79.55
56671;BME280;42545;50.054;8.306;2023-02-28T02:49:47;101050.19;;;-1.65;79.10
56671;BME280;42545;50.054;8.306;2023-02-28T02:52:18;101048.16;;;-1.69;79.21
56671;BME280;42545;50.054;8.306;2023-02-28T02:54:48;101051.91;;;-1.65;78.93
56671;BME280;42545;50.054;8.306;2023-02-28T02:57:21;101046.09;;;-1.73;78.87
56671;BME280;42545;50.054;8.306;2023-02-28T02:59:51;101052.56;;;-1.68;78.36
56671;BME280;42545;50.054;8.306;2023-02-28T03:02:20;101060.31;;;-1.68;77.98
56671;BME280;42545;50.054;8.306;2023-02-28T03:04:52;101050.75;;;-1.69;78.11
56671;BME280;42545;50.054;8.306;2023-02-28T03:07:19;101052.03;;;-1.74;78.21
56671;BME280;42545;50.054;8.306;2023-02-28T03:09:50;101057.63;;;-1.69;78.07
56671;BME280;42545;50.054;8.306;2023-02-28T03:12:18;101059.28;;;-1.70;77.95
56671;BME280;42545;50.054;8.306;2023-02-28T03:14:55;101047.66;;;-1.75;77.58
56671;BME280;42545;50.054;8.306;2023-02-28T03:17:52;101049.84;;;-1.69;77.63
56671;BME280;42545;50.054;8.306;2023-02-28T03:20:32;101054.91;;;-1.71;77.40
56671;BME280;42545;50.054;8.306;2023-02-28T03:23:09;101052.56;;;-1.68;77.54
56671;BME280;42545;50.054;8.306;2023-02-28T03:25:46;101049.97;;;-1.68;77.35
56671;BME280;42545;50.054;8.306;2023-02-28T03:28:26;101045.81;;;-1.66;77.42
56671;BME280;42545;50.054;8.306;2023-02-28T03:30:59;101049.31;;;-1.65;77.27
56671;BME280;42545;50.054;8.306;2023-02-28T03:33:33;101046.59;;;-1.67;77.20
56671;BME280;42545;50.054;8.306;2023-02-28T03:36:07;101046.47;;;-1.68;76.97
56671;BME280;42545;50.054;8.306;2023-02-28T03:38:44;101051.41;;;-1.71;77.21
56671;BME280;42545;50.054;8.306;2023-02-28T03:41:14;101047.91;;;-1.72;77.34
56671;BME280;42545;50.054;8.306;2023-02-28T03:43:46;101043.00;;;-1.79;77.40
56671;BME280;42545;50.054;8.306;2023-02-28T03:46:20;101041.97;;;-1.81;77.41
56671;BME280;42545;50.054;8.306;2023-02-28T03:48:51;101037.06;;;-1.88;77.37
56671;BME280;42545;50.054;8.306;2023-02-28T03:51:23;101048.72;;;-1.83;77.41
56671;BME280;42545;50.054;8.306;2023-02-28T03:53:52;101040.19;;;-1.82;77.70
56671;BME280;42545;50.054;8.306;2023-02-28T03:56:22;101051.31;;;-1.83;77.37
56671;BME280;42545;50.054;8.306;2023-02-28T03:58:55;101051.97;;;-1.86;77.32
56671;BME280;42545;50.054;8.306;2023-02-28T04:01:26;101048.59;;;-1.85;77.18
56671;BME280;42545;50.054;8.306;2023-02-28T04:03:56;101047.69;;;-1.85;76.87
56671;BME280;42545;50.054;8.306;2023-02-28T04:06:24;101049.50;;;-1.84;76.36
56671;BME280;42545;50.054;8.306;2023-02-28T04:08:53;101054.00;;;-1.82;75.59
56671;BME280;42545;50.054;8.306;2023-02-28T04:11:22;101047.69;;;-1.85;75.66
56671;BME280;42545;50.054;8.306;2023-02-28T04:13:50;101057.63;;;-1.80;75.44
56671;BME280;42545;50.054;8.306;2023-02-28T04:16:18;101047.16;;;-1.81;75.13
56671;BME280;42545;50.054;8.306;2023-02-28T04:18:44;101056.06;;;-1.78;75.10
56671;BME280;42545;50.054;8.306;2023-02-28T04:21:12;101055.31;;;-1.77;74.99
56671;BME280;42545;50.054;8.306;2023-02-28T04:23:40;101049.31;;;-1.76;74.54
56671;BME280;42545;50.054;8.306;2023-02-28T04:26:06;101049.47;;;-1.74;74.38
56671;BME280;42545;50.054;8.306;2023-02-28T04:28:33;101053.06;;;-1.72;73.65
56671;BME280;42545;50.054;8.306;2023-02-28T04:31:02;101058.50;;;-1.69;73.84
56671;BME280;42545;50.054;8.306;2023-02-28T04:33:30;101055.03;;;-1.69;73.94
56671;BME280;42545;50.054;8.306;2023-02-28T04:36:01;101045.19;;;-1.74;73.88
56671;BME280;42545;50.054;8.306;2023-02-28T04:38:28;101052.19;;;-1.72;74.01
56671;BME280;42545;50.054;8.306;2023-02-28T04:40:58;101057.22;;;-1.74;73.99
56671;BME280;42545;50.054;8.306;2023-02-28T04:43:26;101064.72;;;-1.77;73.80
56671;BME280;42545;50.054;8.306;2023-02-28T04:45:53;101055.94;;;-1.79;73.79
56671;BME280;42545;50.054;8.306;2023-02-28T04:48:22;101054.16;;;-1.80;73.48
56671;BME280;42545;50.054;8.306;2023-02-28T04:50:48;101061.78;;;-1.82;73.73
56671;BME280;42545;50.054;8.306;2023-02-28T04:53:15;101041.63;;;-1.86;73.80
56671;BME280;42545;50.054;8.306;2023-02-28T04:55:42;101050.28;;;-1.85;73.78
56671;BME280;42545;50.054;8.306;2023-02-28T04:58:10;101043.28;;;-1.86;73.71
56671;BME280;42545;50.054;8.306;2023-02-28T05:00:37;101050.81;;;-1.89;74.15
56671;BME280;42545;50.054;8.306;2023-02-28T05:03:04;101055.97;;;-1.89;73.68
56671;BME280;42545;50.054;8.306;2023-02-28T05:05:31;101051.72;;;-1.89;73.75
56671;BME280;42545;50.054;8.306;2023-02-28T05:07:57;101051.84;;;-1.87;73.37
56671;BME280;42545;50.054;8.306;2023-02-28T05:10:25;101050.13;;;-1.87;73.15
56671;BME280;42545;50.054;8.306;2023-02-28T05:12:51;101045.78;;;-1.88;73.36
56671;BME280;42545;50.054;8.306;2023-02-28T05:15:19;101063.34;;;-1.84;72.92
56671;BME280;42545;50.054;8.306;2023-02-28T05:17:46;101056.59;;;-1.82;72.80
56671;BME280;42545;50.054;8.306;2023-02-28T05:20:12;101055.44;;;-1.85;72.69
56671;BME280;42545;50.054;8.306;2023-02-28T05:22:40;101059.06;;;-1.83;72.46
56671;BME280;42545;50.054;8.306;2023-02-28T05:25:08;101052.84;;;-1.85;72.50
56671;BME280;42545;50.054;8.306;2023-02-28T05:27:37;101066.94;;;-1.82;72.50
56671;BME280;42545;50.054;8.306;2023-02-28T05:30:06;101064.22;;;-1.83;72.49
56671;BME280;42545;50.054;8.306;2023-02-28T05:32:37;101066.06;;;-1.82;72.44
56671;BME280;42545;50.054;8.306;2023-02-28T05:35:04;101066.19;;;-1.81;72.29
56671;BME280;42545;50.054;8.306;2023-02-28T05:37:31;101068.50;;;-1.84;72.73
56671;BME280;42545;50.054;8.306;2023-02-28T05:39:58;101059.47;;;-1.89;73.07
56671;BME280;42545;50.054;8.306;2023-02-28T05:42:25;101065.03;;;-1.84;72.94
56671;BME280;42545;50.054;8.306;2023-02-28T05:44:51;101065.94;;;-1.84;72.93
56671;BME280;42545;50.054;8.306;2023-02-28T05:47:18;101055.56;;;-1.84;73.07
56671;BME280;42545;50.054;8.306;2023-02-28T05:49:46;101067.22;;;-1.79;72.98
56671;BME280;42545;50.054;8.306;2023-02-28T05:52:13;101066.53;;;-1.76;72.62
56671;BME280;42545;50.054;8.306;2023-02-28T05:54:40;101068.38;;;-1.75;72.55
56671;BME280;42545;50.054;8.306;2023-02-28T05:57:07;101065.88;;;-1.74;72.43
56671;BME280;42545;50.054;8.306;2023-02-28T05:59:33;101068.59;;;-1.72;72.01
56671;BME280;42545;50.054;8.306;2023-02-28T06:02:05;101074.78;;;-1.70;72.12
56671;BME280;42545;50.054;8.306;2023-02-28T06:04:32;101065.38;;;-1.69;71.95
56671;BME280;42545;50.054;8.306;2023-02-28T06:07:00;101066.00;;;-1.72;71.65
56671;BME280;42545;50.054;8.306;2023-02-28T06:09:28;101069.63;;;-1.70;71.37
56671;BME280;42545;50.054;8.306;2023-02-28T06:11:57;101078.19;;;-1.71;71.63
56671;BME280;42545;50.054;8.306;2023-02-28T06:14:25;101076.34;;;-1.72;71.42
56671;BME280;42545;50.054;8.306;2023-02-28T06:16:52;101076.34;;;-1.72;71.72
56671;BME280;42545;50.054;8.306;2023-02-28T06:19:19;101081.53;;;-1.72;71.56
56671;BME280;42545;50.054;8.306;2023-02-28T06:21:50;101085.81;;;-1.72;71.77
56671;BME280;42545;50.054;8.306;2023-02-28T06:24:19;101078.72;;;-1.75;71.41
56671;BME280;42545;50.054;8.306;2023-02-28T06:26:45;101080.16;;;-1.79;71.28
56671;BME280;42545;50.054;8.306;2023-02-28T06:29:12;101091.53;;;-1.77;71.28
56671;BME280;42545;50.054;8.306;2023-02-28T06:31:43;101094.66;;;-1.81;71.51
56671;BME280;42545;50.054;8.306;2023-02-28T06:34:11;101076.81;;;-1.88;70.83
56671;BME280;42545;50.054;8.306;2023-02-28T06:36:38;101090.59;;;-1.77;70.67
56671;BME280;42545;50.054;8.306;2023-02-28T06:39:06;101087.38;;;-1.75;70.53
56671;BME280;42545;50.054;8.306;2023-02-28T06:41:35;101087.50;;;-1.73;70.41
56671;BME280;42545;50.054;8.306;2023-02-28T06:44:03;101091.13;;;-1.71;69.75
56671;BME280;42545;50.054;8.306;2023-02-28T06:46:31;101088.66;;;-1.69;69.37
56671;BME280;42545;50.054;8.306;2023-02-28T06:48:58;101095.00;;;-1.66;68.82
56671;BME280;42545;50.054;8.306;2023-02-28T06:51:26;101099.63;;;-1.62;68.41
56671;BME280;42545;50.054;8.306;2023-02-28T06:53:52;101097.31;;;-1.59;67.96
56671;BME280;42545;50.054;8.306;2023-02-28T06:56:20;101100.13;;;-1.56;67.23
56671;BME280;42545;50.054;8.306;2023-02-28T06:58:50;101098.69;;;-1.52;66.39
56671;BME280;42545;50.054;8.306;2023-02-28T07:01:18;101102.81;;;-1.44;66.27
56671;BME280;42545;50.054;8.306;2023-02-28T07:03:47;101107.59;;;-1.38;65.08
56671;BME280;42545;50.054;8.306;2023-02-28T07:06:18;101111.31;;;-1.34;65.16
56671;BME280;42545;50.054;8.306;2023-02-28T07:08:44;101104.72;;;-1.31;64.92
56671;BME280;42545;50.054;8.306;2023-02-28T07:11:11;101105.88;;;-1.27;63.90
56671;BME280;42545;50.054;8.306;2023-02-28T07:13:38;101113.47;;;-1.19;63.39
56671;BME280;42545;50.054;8.306;2023-02-28T07:16:10;101106.31;;;-1.11;62.72
56671;BME280;42545;50.054;8.306;2023-02-28T07:18:38;101114.00;;;-1.01;62.48
56671;BME280;42545;50.054;8.306;2023-02-28T07:21:06;101113.06;;;-0.91;62.27
56671;BME280;42545;50.054;8.306;2023-02-28T07:23:33;101106.78;;;-0.83;61.45
56671;BME280;42545;50.054;8.306;2023-02-28T07:26:00;101115.41;;;-0.72;61.01
56671;BME280;42545;50.054;8.306;2023-02-28T07:28:27;101114.34;;;-0.64;60.93
56671;BME280;42545;50.054;8.306;2023-02-28T07:30:54;101109.88;;;-0.54;61.09
56671;BME280;42545;50.054;8.306;2023-02-28T07:33:22;101113.94;;;-0.46;59.82
56671;BME280;42545;50.054;8.306;2023-02-28T07:35:50;101115.56;;;-0.36;59.98
56671;BME280;42545;50.054;8.306;2023-02-28T07:38:16;101106.66;;;-0.40;59.31
56671;BME280;42545;50.054;8.306;2023-02-28T07:40:43;101112.56;;;-0.19;59.71
56671;BME280;42545;50.054;8.306;2023-02-28T07:43:09;101108.75;;;-0.12;59.06
56671;BME280;42545;50.054;8.306;2023-02-28T07:45:36;101109.22;;;-0.06;58.59
56671;BME280;42545;50.054;8.306;2023-02-28T07:48:03;101104.16;;;0.07;59.11
56671;BME280;42545;50.054;8.306;2023-02-28T07:50:31;101113.91;;;0.33;58.94
56671;BME280;42545;50.054;8.306;2023-02-28T07:52:58;101105.75;;;0.52;58.01
56671;BME280;42545;50.054;8.306;2023-02-28T07:55:24;101109.94;;;0.74;57.46
56671;BME280;42545;50.054;8.306;2023-02-28T07:57:51;101116.78;;;0.85;57.05
56671;BME280;42545;50.054;8.306;2023-02-28T08:00:18;101111.59;;;0.97;56.08
56671;BME280;42545;50.054;8.306;2023-02-28T08:02:45;101106.47;;;1.10;55.66
56671;BME280;42545;50.054;8.306;2023-02-28T08:05:11;101113.44;;;1.23;56.14
56671;BME280;42545;50.054;8.306;2023-02-28T08:07:40;101125.09;;;1.17;55.41
56671;BME280;42545;50.054;8.306;2023-02-28T08:10:07;101115.63;;;1.17;55.54
56671;BME280;42545;50.054;8.306;2023-02-28T08:12:35;101119.75;;;1.27;55.33
56671;BME280;42545;50.054;8.306;2023-02-28T08:15:02;101120.59;;;1.14;55.65
56671;BME280;42545;50.054;8.306;2023-02-28T08:17:28;101117.41;;;1.18;55.62
56671;BME280;42545;50.054;8.306;2023-02-28T08:19:55;101115.94;;;1.22;55.32
56671;BME280;42545;50.054;8.306;2023-02-28T08:22:22;101123.41;;;1.17;54.90
56671;BME280;42545;50.054;8.306;2023-02-28T08:24:50;101127.59;;;1.15;55.76
56671;BME280;42545;50.054;8.306;2023-02-28T08:27:17;101118.09;;;1.15;55.14
56671;BME280;42545;50.054;8.306;2023-02-28T08:29:44;101124.19;;;1.28;55.60
56671;BME280;42545;50.054;8.306;2023-02-28T08:32:11;101100.31;;;1.22;54.26
56671;BME280;42545;50.054;8.306;2023-02-28T08:34:39;101115.91;;;1.33;54.22
56671;BME280;42545;50.054;8.306;2023-02-28T08:37:06;101126.03;;;1.42;55.11
56671;BME280;42545;50.054;8.306;2023-02-28T08:39:34;101125.50;;;1.60;55.58
56671;BME280;42545;50.054;8.306;2023-02-28T08:42:03;101127.63;;;1.65;53.92
56671;BME280;42545;50.054;8.306;2023-02-28T08:44:29;101117.88;;;1.75;55.04
56671;BME280;42545;50.054;8.306;2023-02-28T08:46:56;101126.81;;;1.91;54.77
56671;BME280;42545;50.054;8.306;2023-02-28T08:49:22;101122.72;;;1.95;53.57
56671;BME280;42545;50.054;8.306;2023-02-28T08:51:49;101110.38;;;1.79;53.83
56671;BME280;42545;50.054;8.306;2023-02-28T08:54:15;101123.06;;;1.75;53.86
56671;BME280;42545;50.054;8.306;2023-02-28T08:56:44;101123.50;;;1.81;54.84
56671;BME280;42545;50.054;8.306;2023-02-28T08:59:20;101125.00;;;1.77;54.55
56671;BME280;42545;50.054;8.306;2023-02-28T09:01:48;101127.19;;;1.84;55.06
56671;BME280;42545;50.054;8.306;2023-02-28T09:04:14;101128.03;;;1.97;55.22
56671;BME280;42545;50.054;8.306;2023-02-28T09:06:42;101123.69;;;1.84;54.34
56671;BME280;42545;50.054;8.306;2023-02-28T09:09:10;101129.53;;;1.93;54.65
56671;BME280;42545;50.054;8.306;2023-02-28T09:11:37;101125.50;;;2.10;55.23
56671;BME280;42545;50.054;8.306;2023-02-28T09:14:04;101119.88;;;2.17;54.78
56671;BME280;42545;50.054;8.306;2023-02-28T09:16:37;101119.91;;;2.30;54.72
56671;BME280;42545;50.054;8.306;2023-02-28T09:19:03;101113.97;;;2.20;54.14
56671;BME280;42545;50.054;8.306;2023-02-28T09:21:30;101101.84;;;2.34;54.64
56671;BME280;42545;50.054;8.306;2023-02-28T09:23:57;101113.41;;;2.64;54.16
56671;BME280;42545;50.054;8.306;2023-02-28T09:26:26;101117.31;;;2.71;52.72
56671;BME280;42545;50.054;8.306;2023-02-28T09:28:54;101106.47;;;2.64;51.17
56671;BME280;42545;50.054;8.306;2023-02-28T09:31:22;101121.19;;;2.77;52.19
56671;BME280;42545;50.054;8.306;2023-02-28T09:33:53;101113.66;;;2.95;51.39
56671;BME280;42545;50.054;8.306;2023-02-28T09:36:22;101107.72;;;3.11;50.92
56671;BME280;42545;50.054;8.306;2023-02-28T09:38:49;101103.97;;;3.34;49.76
56671;BME280;42545;50.054;8.306;2023-02-28T09:41:19;101100.44;;;3.62;50.75
56671;BME280;42545;50.054;8.306;2023-02-28T09:43:50;101108.19;;;3.75;49.31
56671;BME280;42545;50.054;8.306;2023-02-28T09:46:27;101108.31;;;3.92;49.08
56671;BME280;42545;50.054;8.306;2023-02-28T09:48:57;101114.91;;;4.00;48.38
56671;BME280;42545;50.054;8.306;2023-02-28T09:51:33;101114.16;;;3.88;47.97
56671;BME280;42545;50.054;8.306;2023-02-28T09:54:02;101123.88;;;4.05;47.87
56671;BME280;42545;50.054;8.306;2023-02-28T09:56:33;101114.63;;;4.10;46.62
56671;BME280;42545;50.054;8.306;2023-02-28T09:59:05;101114.72;;;4.27;47.73
56671;BME280;42545;50.054;8.306;2023-02-28T10:01:41;101108.84;;;4.31;46.97
56671;BME280;42545;50.054;8.306;2023-02-28T10:04:16;101118.50;;;4.32;46.33
56671;BME280;42545;50.054;8.306;2023-02-28T10:06:50;101113.09;;;4.14;45.80
56671;BME280;42545;50.054;8.306;2023-02-28T10:09:19;101107.78;;;4.12;45.90
56671;BME280;42545;50.054;8.306;2023-02-28T10:11:50;101114.28;;;4.04;46.02
56671;BME280;42545;50.054;8.306;2023-02-28T10:14:19;101119.72;;;3.79;46.20
56671;BME280;42545;50.054;8.306;2023-02-28T10:16:50;101121.72;;;3.26;46.88
56671;BME280;42545;50.054;8.306;2023-02-28T10:19:23;101117.44;;;3.70;46.93
56671;BME280;42545;50.054;8.306;2023-02-28T10:21:57;101111.47;;;4.31;46.81
56671;BME280;42545;50.054;8.306;2023-02-28T10:24:29;101103.88;;;4.96;45.34
56671;BME280;42545;50.054;8.306;2023-02-28T10:27:00;101109.66;;;5.06;43.53
56671;BME280;42545;50.054;8.306;2023-02-28T10:29:28;101123.94;;;4.81;44.31
56671;BME280;42545;50.054;8.306;2023-02-28T10:32:01;101119.94;;;4.27;43.39
56671;BME280;42545;50.054;8.306;2023-02-28T10:34:30;101128.59;;;4.40;44.45
56671;BME280;42545;50.054;8.306;2023-02-28T10:36:58;101114.00;;;4.44;44.24
56671;BME280;42545;50.054;8.306;2023-02-28T10:39:40;101119.94;;;3.97;44.45
56671;BME280;42545;50.054;8.306;2023-02-28T10:42:20;101110.28;;;3.81;45.87
56671;BME280;42545;50.054;8.306;2023-02-28T10:45:04;101110.09;;;3.78;46.02
56671;BME280;42545;50.054;8.306;2023-02-28T10:47:33;101111.66;;;3.61;46.58
56671;BME280;42545;50.054;8.306;2023-02-28T10:50:03;101121.53;;;3.52;46.91
56671;BME280;42545;50.054;8.306;2023-02-28T10:52:36;101120.44;;;3.48;47.28
56671;BME280;42545;50.054;8.306;2023-02-28T10:55:20;101121.84;;;3.56;47.65
56671;BME280;42545;50.054;8.306;2023-02-28T10:57:49;101108.94;;;3.88;47.82
56671;BME280;42545;50.054;8.306;2023-02-28T11:00:18;101112.09;;;3.82;46.20
56671;BME280;42545;50.054;8.306;2023-02-28T11:02:47;101113.50;;;3.77;47.04
56671;BME280;42545;50.054;8.306;2023-02-28T11:05:30;101114.38;;;4.06;47.59
56671;BME280;42545;50.054;8.306;2023-02-28T11:08:02;101101.22;;;4.19;45.91
56671;BME280;42545;50.054;8.306;2023-02-28T11:10:32;101099.75;;;4.39;46.22
56671;BME280;42545;50.054;8.306;2023-02-28T11:13:00;101086.03;;;4.58;44.81
56671;BME280;42545;50.054;8.306;2023-02-28T11:15:28;101098.84;;;4.53;43.69
56671;BME280;42545;50.054;8.306;2023-02-28T11:17:58;101102.09;;;4.19;44.98
56671;BME280;42545;50.054;8.306;2023-02-28T11:20:29;101094.34;;;4.51;46.26
56671;BME280;42545;50.054;8.306;2023-02-28T11:22:58;101091.44;;;4.92;44.63
56671;BME280;42545;50.054;8.306;2023-02-28T11:25:30;101074.50;;;5.17;43.52
56671;BME280;42545;50.054;8.306;2023-02-28T11:27:58;101087.72;;;5.20;43.71
56671;BME280;42545;50.054;8.306;2023-02-28T11:30:30;101079.19;;;5.39;43.24
56671;BME280;42545;50.054;8.306;2023-02-28T11:32:57;101067.72;;;5.20;43.63
56671;BME280;42545;50.054;8.306;2023-02-28T11:35:26;101065.50;;;5.28;42.43
56671;BME280;42545;50.054;8.306;2023-02-28T11:37:58;101072.22;;;5.39;42.36
56671;BME280;42545;50.054;8.306;2023-02-28T11:40:31;101067.88;;;5.40;42.75
56671;BME280;42545;50.054;8.306;2023-02-28T11:43:08;101067.38;;;5.31;42.19
56671;BME280;42545;50.054;8.306;2023-02-28T11:45:46;101072.38;;;5.43;43.34
56671;BME280;42545;50.054;8.306;2023-02-28T11:48:20;101070.97;;;5.49;42.64
56671;BME280;42545;50.054;8.306;2023-02-28T11:51:04;101065.59;;;5.46;43.01
56671;BME280;42545;50.054;8.306;2023-02-28T11:53:50;101065.59;;;5.46;42.44
56671;BME280;42545;50.054;8.306;2023-02-28T11:56:29;101059.94;;;5.06;42.30
56671;BME280;42545;50.054;8.306;2023-02-28T11:59:09;101063.75;;;4.96;43.15
56671;BME280;42545;50.054;8.306;2023-02-28T12:01:54;101054.06;;;5.26;43.14
56671;BME280;42545;50.054;8.306;2023-02-28T12:04:27;101053.56;;;5.50;42.48
56671;BME280;42545;50.054;8.306;2023-02-28T12:07:03;101060.34;;;5.63;41.82
56671;BME280;42545;50.054;8.306;2023-02-28T12:09:43;101053.41;;;5.47;41.80
56671;BME280;42545;50.054;8.306;2023-02-28T12:12:21;101056.19;;;5.50;41.17
56671;BME280;42545;50.054;8.306;2023-02-28T12:14:59;101050.13;;;5.51;39.97
56671;BME280;42545;50.054;8.306;2023-02-28T12:17:38;101060.50;;;5.49;41.67
56671;BME280;42545;50.054;8.306;2023-02-28T12:20:17;101041.84;;;5.76;41.60
56671;BME280;42545;50.054;8.306;2023-02-28T12:22:55;101059.97;;;5.89;40.09
56671;BME280;42545;50.054;8.306;2023-02-28T12:25:45;101061.47;;;5.84;40.18
56671;BME280;42545;50.054;8.306;2023-02-28T12:28:19;101046.81;;;5.88;41.06
56671;BME280;42545;50.054;8.306;2023-02-28T12:30:51;101047.31;;;5.97;40.28
56671;BME280;42545;50.054;8.306;2023-02-28T12:33:22;101045.00;;;6.03;40.27
56671;BME280;42545;50.054;8.306;2023-02-28T12:35:54;101055.66;;;5.90;40.42
56671;BME280;42545;50.054;8.306;2023-02-28T12:38:23;101043.47;;;5.74;40.02
56671;BME280;42545;50.054;8.306;2023-02-28T12:40:54;101051.44;;;5.59;41.41
56671;BME280;42545;50.054;8.306;2023-02-28T12:43:27;101055.13;;;5.46;41.06
56671;BME280;42545;50.054;8.306;2023-02-28T12:45:59;101044.31;;;5.40;40.84
56671;BME280;42545;50.054;8.306;2023-02-28T12:48:33;101049.63;;;5.25;41.07
56671;BME280;42545;50.054;8.306;2023-02-28T12:51:05;101040.41;;;5.15;42.21
56671;BME280;42545;50.054;8.306;2023-02-28T12:53:47;101052.25;;;5.25;41.86
56671;BME280;42545;50.054;8.306;2023-02-28T12:56:22;101043.03;;;5.32;43.09
56671;BME280;42545;50.054;8.306;2023-02-28T12:58:54;101043.44;;;5.39;42.18
56671;BME280;42545;50.054;8.306;2023-02-28T13:01:42;101036.91;;;5.31;42.03
56671;BME280;42545;50.054;8.306;2023-02-28T13:07:42;101048.44;;;5.51;42.34
56671;BME280;42545;50.054;8.306;2023-02-28T13:10:13;101038.38;;;5.43;41.96
56671;BME280;42545;50.054;8.306;2023-02-28T13:12:49;101037.97;;;5.35;41.97
56671;BME280;42545;50.054;8.306;2023-02-28T13:15:21;101039.25;;;5.27;41.97